createdAt,value
2022-12-20T00:00:52.827Z,94983.88
2022-12-20T00:03:20.720Z,94986.72
2022-12-20T00:05:47.885Z,94975.78
2022-12-20T00:08:15.030Z,94986.44
2022-12-20T00:10:43.532Z,94980.34
2022-12-20T00:13:11.270Z,94977.22
2022-12-20T00:15:37.956Z,94984.03
2022-12-20T00:18:05.101Z,94981.00
2022-12-20T00:20:32.037Z,94976.84
2022-12-20T00:22:58.708Z,94971.56
2022-12-20T00:25:25.592Z,94966.47
2022-12-20T00:27:52.353Z,94956.03
2022-12-20T00:30:19.432Z,94956.97
2022-12-20T00:32:49.164Z,94956.25
2022-12-20T00:35:15.892Z,94965.44
2022-12-20T00:37:42.580Z,94950.13
2022-12-20T00:40:09.636Z,94960.31
2022-12-20T00:42:36.257Z,94963.53
2022-12-20T00:45:03.696Z,94966.22
2022-12-20T00:47:30.333Z,94959.56
2022-12-20T00:49:57.077Z,94970.56
2022-12-20T00:52:23.810Z,94971.94
2022-12-20T00:54:50.386Z,94971.97
2022-12-20T00:57:17.121Z,94966.88
2022-12-20T00:59:43.721Z,94964.25
2022-12-20T01:02:10.601Z,94972.44
2022-12-20T01:04:37.533Z,94983.97
2022-12-20T01:07:04.465Z,94976.13
2022-12-20T01:09:31.877Z,94986.38
2022-12-20T01:11:58.609Z,94974.09
2022-12-20T01:14:25.340Z,94966.69
2022-12-20T01:16:52.067Z,94971.59
2022-12-20T01:19:19.473Z,94976.56
2022-12-20T01:21:46.320Z,94977.41
2022-12-20T01:24:18.363Z,94974.72
2022-12-20T01:26:45.497Z,94974.59
2022-12-20T01:29:12.222Z,94962.97
2022-12-20T01:31:38.895Z,94967.31
2022-12-20T01:34:05.770Z,94968.50
2022-12-20T01:36:34.077Z,94964.69
2022-12-20T01:39:06.470Z,94960.41
2022-12-20T01:41:33.712Z,94958.84
2022-12-20T01:44:25.425Z,94951.34
2022-12-20T01:46:52.885Z,94945.66
2022-12-20T01:49:30.551Z,94946.91
2022-12-20T01:52:02.812Z,94942.53
2022-12-20T01:54:49.624Z,94935.91
2022-12-20T01:57:57.540Z,94930.44
2022-12-20T02:00:24.585Z,94937.25
2022-12-20T02:02:51.875Z,94946.28
2022-12-20T02:05:20.247Z,94942.13
2022-12-20T02:07:49.107Z,94945.13
2022-12-20T02:10:17.326Z,94940.72
2022-12-20T02:12:46.523Z,94939.78
2022-12-20T02:15:42.517Z,94933.00
2022-12-20T02:18:33.969Z,94930.94
2022-12-20T02:21:18.828Z,94921.03
2022-12-20T02:24:07.525Z,94912.97
2022-12-20T02:26:52.356Z,94914.38
2022-12-20T02:29:28.420Z,94903.97
2022-12-20T02:32:04.700Z,94913.88
2022-12-20T02:34:33.969Z,94914.44
2022-12-20T02:37:00.610Z,94914.81
2022-12-20T02:39:29.270Z,94908.81
2022-12-20T02:42:01.876Z,94908.22
2022-12-20T02:44:48.935Z,94890.44
2022-12-20T02:47:21.088Z,94899.75
2022-12-20T02:49:49.456Z,94911.50
2022-12-20T02:52:17.138Z,94910.97
2022-12-20T02:54:43.919Z,94909.69
2022-12-20T02:57:18.172Z,94918.09
2022-12-20T02:59:57.474Z,94915.88
2022-12-20T03:02:25.311Z,94908.97
2022-12-20T03:04:52.769Z,94913.75
2022-12-20T03:07:20.339Z,94903.09
2022-12-20T03:09:47.071Z,94913.13
2022-12-20T03:12:16.061Z,94908.00
2022-12-20T03:14:42.795Z,94907.25
2022-12-20T03:17:09.676Z,94893.38
2022-12-20T03:19:36.338Z,94902.41
2022-12-20T03:22:03.152Z,94912.72
2022-12-20T03:24:29.823Z,94900.16
2022-12-20T03:26:56.450Z,94899.66
2022-12-20T03:29:23.127Z,94897.81
2022-12-20T03:31:49.722Z,94897.28
2022-12-20T03:34:16.319Z,94894.41
2022-12-20T03:36:42.988Z,94885.53
2022-12-20T03:39:09.665Z,94888.34
2022-12-20T03:41:36.408Z,94890.03
2022-12-20T03:44:03.700Z,94894.97
2022-12-20T03:46:30.515Z,94902.28
2022-12-20T03:48:57.156Z,94894.81
2022-12-20T03:51:23.809Z,94894.84
2022-12-20T03:53:50.672Z,94895.56
2022-12-20T03:56:17.358Z,94901.97
2022-12-20T03:58:44.304Z,94900.66
2022-12-20T04:01:25.187Z,94911.19
2022-12-20T04:03:52.239Z,94904.69
2022-12-20T04:06:20.067Z,94912.84
2022-12-20T04:08:46.773Z,94904.47
2022-12-20T04:11:16.672Z,94912.75
2022-12-20T04:13:44.878Z,94918.06
2022-12-20T04:16:12.598Z,94921.94
2022-12-20T04:18:39.345Z,94911.69
2022-12-20T04:21:07.376Z,94910.69
2022-12-20T04:23:38.554Z,94907.94
2022-12-20T04:26:06.822Z,94898.25
2022-12-20T04:28:34.178Z,94901.97
2022-12-20T04:31:01.039Z,94882.22
2022-12-20T04:33:28.712Z,94898.53
2022-12-20T04:35:55.766Z,94890.19
2022-12-20T04:38:23.079Z,94868.91
2022-12-20T04:40:50.748Z,94878.97
2022-12-20T04:43:18.443Z,94879.13
2022-12-20T04:45:47.621Z,94882.19
2022-12-20T04:48:54.468Z,94876.75
2022-12-20T04:51:01.558Z,94884.63
2022-12-20T04:53:47.080Z,94882.91
2022-12-20T04:56:26.231Z,94892.09
2022-12-20T04:58:54.174Z,94887.25
2022-12-20T05:01:21.583Z,94901.09
2022-12-20T05:03:49.541Z,94897.19
2022-12-20T05:06:17.036Z,94892.66
2022-12-20T05:08:44.203Z,94889.44
2022-12-20T05:11:11.458Z,94888.34
2022-12-20T05:13:38.199Z,94894.78
2022-12-20T05:16:05.192Z,94898.59
2022-12-20T05:18:32.183Z,94889.97
2022-12-20T05:21:17.718Z,94872.66
2022-12-20T05:24:02.927Z,94859.63
2022-12-20T05:26:32.137Z,94869.78
2022-12-20T05:28:58.781Z,94856.84
2022-12-20T05:31:25.606Z,94853.88
2022-12-20T05:33:52.425Z,94861.97
2022-12-20T05:36:19.047Z,94871.41
2022-12-20T05:38:45.739Z,94886.38
2022-12-20T05:41:12.379Z,94900.06
2022-12-20T05:43:38.991Z,94918.50
2022-12-20T05:46:05.847Z,94908.59
2022-12-20T05:48:32.485Z,94907.34
2022-12-20T05:50:59.305Z,94914.63
2022-12-20T05:53:26.721Z,94895.03
2022-12-20T05:55:54.409Z,94889.38
2022-12-20T05:58:21.224Z,94877.50
2022-12-20T06:00:47.919Z,94879.50
2022-12-20T06:03:19.125Z,94891.69
2022-12-20T06:05:46.139Z,94885.00
2022-12-20T06:08:13.924Z,94878.75
2022-12-20T06:10:42.081Z,94888.66
2022-12-20T06:13:09.494Z,94886.03
2022-12-20T06:15:36.913Z,94881.50
2022-12-20T06:18:03.938Z,94892.78
2022-12-20T06:20:31.369Z,94895.19
2022-12-20T06:22:58.285Z,94896.69
2022-12-20T06:25:25.756Z,94894.78
2022-12-20T06:27:52.583Z,94891.09
2022-12-20T06:30:19.474Z,94894.34
2022-12-20T06:32:46.263Z,94882.03
2022-12-20T06:35:13.287Z,94888.38
2022-12-20T06:37:40.772Z,94883.59
2022-12-20T06:40:12.584Z,94891.47
2022-12-20T06:42:39.476Z,94885.25
2022-12-20T06:45:07.061Z,94894.81
2022-12-20T06:47:33.759Z,94894.91
2022-12-20T06:50:00.477Z,94886.97
2022-12-20T06:52:27.238Z,94890.91
2022-12-20T06:54:54.027Z,94896.97
2022-12-20T06:57:20.721Z,94895.25
2022-12-20T06:59:47.547Z,94897.63
2022-12-20T07:02:14.581Z,94884.63
2022-12-20T07:04:41.664Z,94881.91
2022-12-20T07:07:08.598Z,94877.44
2022-12-20T07:09:35.474Z,94886.06
2022-12-20T07:12:02.282Z,94877.28
2022-12-20T07:14:29.048Z,94888.09
2022-12-20T07:16:55.977Z,94888.59
2022-12-20T07:19:22.803Z,94897.19
2022-12-20T07:21:49.518Z,94884.88
2022-12-20T07:24:16.333Z,94888.34
2022-12-20T07:26:45.750Z,94895.84
2022-12-20T07:29:15.657Z,94892.19
2022-12-20T07:31:42.883Z,94888.63
2022-12-20T07:34:10.804Z,94881.59
2022-12-20T07:36:37.987Z,94878.81
2022-12-20T07:39:04.711Z,94872.16
2022-12-20T07:41:31.615Z,94862.28
2022-12-20T07:43:59.537Z,94869.56
2022-12-20T07:46:26.761Z,94864.41
2022-12-20T07:48:53.806Z,94861.06
2022-12-20T07:51:26.508Z,94853.97
2022-12-20T07:54:00.384Z,94871.16
2022-12-20T07:56:27.698Z,94865.78
2022-12-20T07:58:58.397Z,94864.75
2022-12-20T08:01:27.463Z,94867.31
2022-12-20T08:04:00.031Z,94865.94
2022-12-20T08:06:26.761Z,94876.00
2022-12-20T08:08:56.092Z,94881.78
2022-12-20T08:11:23.258Z,94872.19
2022-12-20T08:13:55.734Z,94865.25
2022-12-20T08:16:24.961Z,94882.28
2022-12-20T08:18:51.871Z,94875.50
2022-12-20T08:21:19.265Z,94872.56
2022-12-20T08:23:46.027Z,94866.09
2022-12-20T08:26:12.738Z,94861.94
2022-12-20T08:28:39.478Z,94862.78
2022-12-20T08:31:08.503Z,94857.75
2022-12-20T08:33:36.353Z,94856.34
2022-12-20T08:36:06.965Z,94857.84
2022-12-20T08:38:34.133Z,94854.56
2022-12-20T08:41:05.984Z,94859.81
2022-12-20T08:43:33.760Z,94858.06
2022-12-20T08:46:01.000Z,94854.66
2022-12-20T08:48:28.012Z,94863.97
2022-12-20T08:50:56.879Z,94867.47
2022-12-20T08:53:23.497Z,94863.56
2022-12-20T08:55:50.974Z,94872.97
2022-12-20T08:58:17.756Z,94867.84
2022-12-20T09:00:44.951Z,94877.25
2022-12-20T09:03:13.988Z,94872.34
2022-12-20T09:05:47.502Z,94882.19
2022-12-20T09:08:15.314Z,94873.66
2022-12-20T09:10:42.530Z,94867.19
2022-12-20T09:13:10.612Z,94865.59
2022-12-20T09:15:37.509Z,94865.16
2022-12-20T09:18:04.804Z,94855.31
2022-12-20T09:20:31.682Z,94860.31
2022-12-20T09:23:00.064Z,94856.84
2022-12-20T09:25:27.533Z,94841.03
2022-12-20T09:27:57.830Z,94836.53
2022-12-20T09:30:24.577Z,94835.91
2022-12-20T09:32:51.401Z,94834.44
2022-12-20T09:35:23.018Z,94815.09
2022-12-20T09:37:50.369Z,94812.19
2022-12-20T09:40:19.083Z,94814.84
2022-12-20T09:42:46.170Z,94812.56
2022-12-20T09:45:20.163Z,94817.38
2022-12-20T09:47:46.901Z,94813.53
2022-12-20T09:50:16.007Z,94825.66
2022-12-20T09:52:54.941Z,94817.69
2022-12-20T09:55:24.596Z,94814.75
2022-12-20T09:58:19.538Z,94806.34
2022-12-20T10:00:53.454Z,94808.81
2022-12-20T10:03:28.049Z,94795.84
2022-12-20T10:05:58.034Z,94802.72
2022-12-20T10:08:45.308Z,94809.16
2022-12-20T10:11:51.409Z,94809.13
2022-12-20T10:14:36.159Z,94803.84
2022-12-20T10:17:06.220Z,94797.75
2022-12-20T10:19:54.594Z,94790.22
2022-12-20T10:22:25.835Z,94786.75
2022-12-20T10:25:07.012Z,94780.88
2022-12-20T10:27:38.051Z,94775.44
2022-12-20T10:30:19.085Z,94763.34
2022-12-20T10:32:48.293Z,94757.50
2022-12-20T10:35:14.912Z,94755.50
2022-12-20T10:38:08.945Z,94739.28
2022-12-20T10:41:10.313Z,94740.31
2022-12-20T10:43:25.201Z,94743.38
2022-12-20T10:46:00.535Z,94744.59
2022-12-20T10:48:29.639Z,94741.34
2022-12-20T10:51:15.434Z,94727.41
2022-12-20T10:53:53.614Z,94736.06
2022-12-20T10:56:30.003Z,94735.19
2022-12-20T10:59:00.907Z,94731.78
2022-12-20T11:01:31.468Z,94735.34
2022-12-20T11:03:59.569Z,94726.31
2022-12-20T11:06:48.348Z,94731.81
2022-12-20T11:09:27.330Z,94714.38
2022-12-20T11:12:04.580Z,94712.84
2022-12-20T11:14:38.898Z,94714.41
2022-12-20T11:17:23.474Z,94723.88
2022-12-20T11:20:08.321Z,94704.91
2022-12-20T11:22:40.475Z,94693.47
2022-12-20T11:25:21.122Z,94695.03
2022-12-20T11:28:12.572Z,94693.28
2022-12-20T11:30:51.023Z,94686.03
2022-12-20T11:33:35.421Z,94686.34
2022-12-20T11:36:18.071Z,94670.19
2022-12-20T11:38:56.582Z,94662.44
2022-12-20T11:41:35.523Z,94657.56
2022-12-20T11:44:26.689Z,94649.72
2022-12-20T11:47:15.316Z,94658.34
2022-12-20T11:50:04.693Z,94644.19
2022-12-20T11:52:35.774Z,94644.25
2022-12-20T11:55:36.666Z,94633.56
2022-12-20T11:58:27.499Z,94619.78
2022-12-20T12:01:02.254Z,94639.66
2022-12-20T12:03:40.188Z,94627.78
2022-12-20T12:06:17.023Z,94621.53
2022-12-20T12:08:50.092Z,94623.13
2022-12-20T12:12:07.926Z,94627.31
2022-12-20T12:14:46.909Z,94625.31
2022-12-20T12:17:51.390Z,94618.78
2022-12-20T12:20:27.274Z,94622.00
2022-12-20T12:23:00.751Z,94610.28
2022-12-20T12:25:27.703Z,94618.78
2022-12-20T12:27:54.584Z,94610.97
2022-12-20T12:30:21.674Z,94620.72
2022-12-20T12:32:54.757Z,94612.22
2022-12-20T12:35:52.427Z,94611.44
2022-12-20T12:38:32.918Z,94604.38
2022-12-20T12:41:05.503Z,94602.59
2022-12-20T12:43:52.763Z,94594.41
2022-12-20T12:46:33.178Z,94594.91
2022-12-20T12:49:04.640Z,94592.47
2022-12-20T12:51:39.908Z,94587.00
2022-12-20T12:54:09.543Z,94586.84
2022-12-20T12:56:44.669Z,94577.59
2022-12-20T12:59:12.469Z,94583.66
2022-12-20T13:01:54.123Z,94593.09
2022-12-20T13:04:21.143Z,94582.84
2022-12-20T13:06:47.908Z,94588.44
2022-12-20T13:09:27.211Z,94583.47
2022-12-20T13:12:01.397Z,94578.13
2022-12-20T13:14:31.058Z,94567.38
2022-12-20T13:17:19.512Z,94562.38
2022-12-20T13:19:57.719Z,94563.91
2022-12-20T13:22:25.863Z,94566.66
2022-12-20T13:24:57.025Z,94561.38
2022-12-20T13:27:29.527Z,94560.69
2022-12-20T13:29:59.686Z,94554.78
2022-12-20T13:32:48.397Z,94556.19
2022-12-20T13:35:30.157Z,94559.13
2022-12-20T13:38:04.235Z,94551.78
2022-12-20T13:40:43.661Z,94555.28
2022-12-20T13:43:19.623Z,94555.13
2022-12-20T13:45:53.849Z,94547.91
2022-12-20T13:48:26.815Z,94552.38
2022-12-20T13:50:55.299Z,94550.13
2022-12-20T13:53:24.986Z,94547.09
2022-12-20T13:55:51.706Z,94550.78
2022-12-20T13:58:22.503Z,94552.75
2022-12-20T14:00:49.918Z,94548.28
2022-12-20T14:03:28.388Z,94558.84
2022-12-20T14:06:02.935Z,94549.56
2022-12-20T14:08:32.758Z,94545.22
2022-12-20T14:11:12.713Z,94549.53
2022-12-20T14:13:39.779Z,94543.13
2022-12-20T14:16:20.249Z,94549.22
2022-12-20T14:18:51.220Z,94546.69
2022-12-20T14:21:18.929Z,94540.91
2022-12-20T14:23:48.653Z,94538.34
2022-12-20T14:26:26.841Z,94538.03
2022-12-20T14:28:58.673Z,94529.84
2022-12-20T14:31:41.565Z,94542.50
2022-12-20T14:34:11.475Z,94542.00
2022-12-20T14:36:43.023Z,94548.91
2022-12-20T14:39:39.331Z,94553.22
2022-12-20T14:42:09.861Z,94549.56
2022-12-20T14:44:36.697Z,94549.56
2022-12-20T14:47:20.318Z,94544.44
2022-12-20T14:50:01.614Z,94549.38
2022-12-20T14:52:39.103Z,94545.53
2022-12-20T14:55:10.199Z,94542.59
2022-12-20T14:57:37.275Z,94542.28
2022-12-20T15:00:21.515Z,94536.84
2022-12-20T15:03:00.833Z,94540.38
2022-12-20T15:05:34.221Z,94531.38
2022-12-20T15:08:19.555Z,94523.41
2022-12-20T15:11:10.941Z,94522.75
2022-12-20T15:13:42.851Z,94521.25
2022-12-20T15:16:19.975Z,94517.44
2022-12-20T15:18:54.220Z,94507.47
2022-12-20T15:21:27.063Z,94517.56
2022-12-20T15:23:55.910Z,94515.78
2022-12-20T15:26:25.127Z,94526.66
2022-12-20T15:28:52.438Z,94522.31
2022-12-20T15:31:25.987Z,94511.94
2022-12-20T15:33:58.329Z,94526.19
2022-12-20T15:36:27.175Z,94519.44
2022-12-20T15:39:12.233Z,94516.41
2022-12-20T15:41:42.939Z,94518.50
2022-12-20T15:44:15.662Z,94518.75
2022-12-20T15:46:44.449Z,94488.84
2022-12-20T15:49:25.555Z,94518.00
2022-12-20T15:51:54.039Z,94516.84
2022-12-20T15:54:30.016Z,94518.75
2022-12-20T15:56:58.780Z,94512.47
2022-12-20T15:59:58.906Z,94517.53
2022-12-20T16:02:25.981Z,94511.78
2022-12-20T16:04:53.657Z,94504.09
2022-12-20T16:07:20.396Z,94508.31
2022-12-20T16:09:47.205Z,94501.28
2022-12-20T16:12:21.653Z,94510.06
2022-12-20T16:14:48.430Z,94510.00
2022-12-20T16:17:15.896Z,94509.50
2022-12-20T16:19:43.284Z,94505.53
2022-12-20T16:22:17.563Z,94510.00
2022-12-20T16:24:45.228Z,94496.69
2022-12-20T16:27:12.198Z,94491.25
2022-12-20T16:29:39.004Z,94492.84
2022-12-20T16:32:17.009Z,94483.50
2022-12-20T16:34:44.731Z,94487.34
2022-12-20T16:37:14.318Z,94495.09
2022-12-20T16:39:41.736Z,94495.16
2022-12-20T16:42:17.195Z,94504.41
2022-12-20T16:44:45.848Z,94504.16
2022-12-20T16:47:14.006Z,94487.09
2022-12-20T16:49:47.262Z,94510.84
2022-12-20T16:52:19.327Z,94509.53
2022-12-20T16:54:46.155Z,94512.50
2022-12-20T16:57:12.863Z,94510.91
2022-12-20T16:59:39.761Z,94499.03
2022-12-20T17:02:25.750Z,94505.09
2022-12-20T17:04:52.690Z,94507.28
2022-12-20T17:07:19.479Z,94512.41
2022-12-20T17:12:30.361Z,94511.75
2022-12-20T17:14:57.241Z,94510.97
2022-12-20T17:17:24.050Z,94519.81
2022-12-20T17:19:50.917Z,94512.56
2022-12-20T17:25:02.386Z,94514.75
2022-12-20T17:27:29.194Z,94516.72
2022-12-20T17:29:55.951Z,94499.00
2022-12-20T17:32:24.615Z,94507.97
2022-12-20T17:34:53.000Z,94499.38
2022-12-20T17:37:21.311Z,94499.94
2022-12-20T17:39:48.409Z,94498.63
2022-12-20T17:42:15.742Z,94498.75
2022-12-20T17:44:42.618Z,94489.66
2022-12-20T17:47:09.628Z,94493.84
2022-12-20T17:49:36.403Z,94483.53
2022-12-20T17:52:03.270Z,94494.09
2022-12-20T17:54:38.516Z,94473.53
2022-12-20T17:57:06.118Z,94487.81
2022-12-20T17:59:33.033Z,94480.75
2022-12-20T18:01:59.964Z,94477.25
2022-12-20T18:04:26.985Z,94478.13
2022-12-20T18:06:53.875Z,94468.59
2022-12-20T18:09:21.724Z,94476.25
2022-12-20T18:11:49.034Z,94472.94
2022-12-20T18:14:16.034Z,94470.47
2022-12-20T18:16:43.301Z,94465.28
2022-12-20T18:19:16.132Z,94472.16
2022-12-20T18:21:42.921Z,94470.41
2022-12-20T18:24:14.675Z,94459.53
2022-12-20T18:26:41.710Z,94456.69
2022-12-20T18:29:09.906Z,94458.53
2022-12-20T18:31:36.863Z,94464.16
2022-12-20T18:34:03.869Z,94459.81
2022-12-20T18:36:35.038Z,94453.75
2022-12-20T18:39:03.162Z,94457.56
2022-12-20T18:41:30.817Z,94451.06
2022-12-20T18:44:00.331Z,94443.69
2022-12-20T18:46:27.710Z,94447.72
2022-12-20T18:48:55.748Z,94439.84
2022-12-20T18:51:26.332Z,94442.13
2022-12-20T18:53:55.360Z,94439.72
2022-12-20T18:56:29.366Z,94441.16
2022-12-20T18:58:56.858Z,94435.03
2022-12-20T19:01:25.649Z,94430.75
2022-12-20T19:03:53.389Z,94428.34
2022-12-20T19:06:20.656Z,94429.66
2022-12-20T19:08:47.667Z,94416.72
2022-12-20T19:11:24.104Z,94410.53
2022-12-20T19:13:51.433Z,94410.84
2022-12-20T19:16:23.908Z,94411.63
2022-12-20T19:18:51.179Z,94405.22
2022-12-20T19:21:24.182Z,94414.69
2022-12-20T19:23:52.963Z,94408.03
2022-12-20T19:26:20.882Z,94410.75
2022-12-20T19:28:48.045Z,94407.78
2022-12-20T19:31:21.615Z,94402.91
2022-12-20T19:33:48.861Z,94404.25
2022-12-20T19:36:21.279Z,94404.66
2022-12-20T19:38:53.491Z,94403.19
2022-12-20T19:41:20.383Z,94396.94
2022-12-20T19:43:49.593Z,94387.91
2022-12-20T19:46:16.627Z,94394.06
2022-12-20T19:48:43.497Z,94387.00
2022-12-20T19:51:12.453Z,94395.38
2022-12-20T19:53:40.259Z,94401.41
2022-12-20T19:56:10.008Z,94401.09
2022-12-20T19:58:37.866Z,94399.72
2022-12-20T20:01:05.414Z,94410.56
2022-12-20T20:03:32.793Z,94404.72
2022-12-20T20:05:59.657Z,94414.25
2022-12-20T20:08:26.431Z,94412.38
2022-12-20T20:10:55.406Z,94407.94
2022-12-20T20:13:23.312Z,94401.84
2022-12-20T20:15:53.828Z,94403.50
2022-12-20T20:18:21.266Z,94401.25
2022-12-20T20:20:47.879Z,94393.22
2022-12-20T20:23:14.944Z,94392.94
2022-12-20T20:25:48.119Z,94383.41
2022-12-20T20:28:14.824Z,94377.78
2022-12-20T20:30:42.790Z,94393.47
2022-12-20T20:33:10.245Z,94378.84
2022-12-20T20:35:37.027Z,94389.53
2022-12-20T20:38:03.853Z,94388.47
2022-12-20T20:40:30.844Z,94386.59
2022-12-20T20:42:57.537Z,94393.19
2022-12-20T20:45:24.153Z,94385.44
2022-12-20T20:47:50.882Z,94388.00
2022-12-20T20:50:18.314Z,94383.28
2022-12-20T20:52:44.922Z,94391.75
2022-12-20T20:55:11.558Z,94394.03
2022-12-20T20:57:38.531Z,94384.78
2022-12-20T21:00:07.297Z,94377.41
2022-12-20T21:02:34.267Z,94376.19
2022-12-20T21:05:52.502Z,94374.31
2022-12-20T21:07:47.726Z,94372.66
2022-12-20T21:10:14.666Z,94358.81
2022-12-20T21:12:41.338Z,94364.31
2022-12-20T21:15:24.652Z,94365.00
2022-12-20T21:17:51.509Z,94362.72
2022-12-20T21:20:23.877Z,94357.63
2022-12-20T21:22:52.456Z,94347.31
2022-12-20T21:25:19.226Z,94344.00
2022-12-20T21:27:45.869Z,94348.28
2022-12-20T21:30:12.717Z,94344.09
2022-12-20T21:32:39.359Z,94335.91
2022-12-20T21:35:06.512Z,94337.66
2022-12-20T21:37:33.109Z,94340.63
2022-12-20T21:39:59.727Z,94326.56
2022-12-20T21:42:26.379Z,94328.28
2022-12-20T21:44:53.068Z,94323.28
2022-12-20T21:47:20.193Z,94312.66
2022-12-20T21:49:46.829Z,94316.66
2022-12-20T21:52:13.654Z,94305.25
2022-12-20T21:54:40.565Z,94298.56
2022-12-20T21:57:07.197Z,94300.41
2022-12-20T21:59:33.819Z,94302.84
2022-12-20T22:02:00.729Z,94299.41
2022-12-20T22:04:27.627Z,94303.16
2022-12-20T22:06:54.221Z,94307.13
2022-12-20T22:09:20.879Z,94295.13
2022-12-20T22:11:50.863Z,94289.97
2022-12-20T22:14:17.438Z,94291.56
2022-12-20T22:16:44.246Z,94283.06
2022-12-20T22:19:13.109Z,94283.06
2022-12-20T22:21:39.748Z,94291.28
2022-12-20T22:24:06.572Z,94287.63
2022-12-20T22:26:33.828Z,94286.53
2022-12-20T22:29:03.245Z,94291.34
2022-12-20T22:31:30.595Z,94282.25
2022-12-20T22:33:58.511Z,94284.88
2022-12-20T22:36:25.789Z,94278.78
2022-12-20T22:38:53.935Z,94263.84
2022-12-20T22:41:23.107Z,94272.28
2022-12-20T22:43:50.278Z,94262.97
2022-12-20T22:46:18.090Z,94252.50
2022-12-20T22:48:45.562Z,94250.38
2022-12-20T22:51:20.633Z,94245.16
2022-12-20T22:53:48.097Z,94247.44
2022-12-20T22:56:15.675Z,94227.69
2022-12-20T22:58:42.363Z,94229.56
2022-12-20T23:01:12.446Z,94226.91
2022-12-20T23:03:39.589Z,94229.03
2022-12-20T23:06:08.269Z,94229.03
2022-12-20T23:08:37.285Z,94224.16
2022-12-20T23:11:24.082Z,94227.00
2022-12-20T23:14:09.227Z,94221.06
2022-12-20T23:16:37.875Z,94207.31
2022-12-20T23:19:04.494Z,94207.22
2022-12-20T23:21:49.548Z,94208.63
2022-12-20T23:24:16.322Z,94202.94
2022-12-20T23:26:43.378Z,94185.06
2022-12-20T23:29:11.389Z,94192.22
2022-12-20T23:31:38.109Z,94188.94
2022-12-20T23:34:04.966Z,94183.16
2022-12-20T23:36:33.361Z,94194.09
2022-12-20T23:39:00.263Z,94196.38
2022-12-20T23:41:27.149Z,94204.31
2022-12-20T23:43:53.844Z,94208.59
2022-12-20T23:46:21.997Z,94207.66
2022-12-20T23:48:51.000Z,94206.34
2022-12-20T23:51:18.438Z,94209.28
2022-12-20T23:53:45.321Z,94210.91
2022-12-20T23:56:15.025Z,94200.06
2022-12-20T23:58:42.721Z,94195.63
